Seabrook, Texas
Current Conditions -  °F | °C
As of 1:50 AM on Tuesday 27 Jan 2015 (Local Time) from KEFD Reporting Station
Few Clouds Few Clouds  
Wind Chill: 54°   Ceiling: Unl
Heat Index: 54°   Visibility: 10mi
Dew Point: 43°   Wind: 5mph
Humidity: 67%   Direction: 230°SW
Pressure: 30.15"   Gusts: NA
Location:  29.56°N, 95.02°W
Report Text: KEFD 270750Z 23004KT 10SM FEW250 12/06 A3015
Loading
Personal Weather Stations






























Interactive Weather Map New forecast layout! Learn more

10-Day Weather Forecast

Advertisements
Track Severe Weather on mobile